createdAt,value
2023-07-17T00:01:40.456Z,68.35
2023-07-17T00:06:44.944Z,71.59
2023-07-17T00:11:48.058Z,72.30
2023-07-17T00:16:51.291Z,71.74
2023-07-17T00:21:55.788Z,69.94
2023-07-17T00:26:58.897Z,69.25
2023-07-17T00:32:01.998Z,69.33
2023-07-17T00:37:07.102Z,68.55
2023-07-17T00:42:10.424Z,71.14
2023-07-17T00:47:14.469Z,70.70
2023-07-17T00:52:19.199Z,69.86
2023-07-17T00:57:26.147Z,72.83
2023-07-17T01:02:29.987Z,75.69
2023-07-17T01:07:34.902Z,77.44
2023-07-17T01:12:39.069Z,80.24
2023-07-17T01:17:43.104Z,82.46
2023-07-17T01:22:57.445Z,84.25
2023-07-17T01:28:00.635Z,85.82
2023-07-17T01:33:03.912Z,87.34
2023-07-17T01:38:08.900Z,88.33
2023-07-17T01:43:12.062Z,90.15
2023-07-17T01:48:16.323Z,91.15
2023-07-17T01:53:22.924Z,92.37
2023-07-17T01:58:26.053Z,92.64
2023-07-17T02:03:30.446Z,93.69
2023-07-17T02:08:34.888Z,96.45
2023-07-17T02:13:38.339Z,96.86
2023-07-17T02:18:42.145Z,97.38
2023-07-17T02:23:46.667Z,98.86
2023-07-17T02:28:49.772Z,100.00
2023-07-17T02:33:53.077Z,100.00
2023-07-17T02:38:57.848Z,100.00
2023-07-17T02:44:01.235Z,100.00
2023-07-17T02:49:04.751Z,100.00
2023-07-17T02:54:09.195Z,100.00
2023-07-17T02:59:12.278Z,100.00
2023-07-17T03:04:15.495Z,100.00
2023-07-17T03:09:19.957Z,100.00
2023-07-17T03:14:23.079Z,100.00
2023-07-17T03:19:26.178Z,100.00
2023-07-17T03:24:30.838Z,100.00
2023-07-17T03:29:34.397Z,100.00
2023-07-17T03:34:38.184Z,100.00
2023-07-17T03:39:42.689Z,100.00
2023-07-17T03:44:45.985Z,100.00
2023-07-17T03:49:49.420Z,100.00
2023-07-17T03:54:53.852Z,100.00
2023-07-17T03:59:57.647Z,100.00
2023-07-17T04:05:01.450Z,100.00
2023-07-17T04:10:06.554Z,100.00
2023-07-17T04:15:11.013Z,100.00
2023-07-17T04:20:14.139Z,100.00
2023-07-17T04:25:18.768Z,100.00
2023-07-17T04:30:21.883Z,100.00
2023-07-17T04:35:25.028Z,100.00
2023-07-17T04:40:29.509Z,100.00
2023-07-17T04:45:33.138Z,100.00
2023-07-17T04:50:36.276Z,100.00
2023-07-17T04:55:40.743Z,100.00
2023-07-17T05:00:47.252Z,100.00
2023-07-17T05:05:50.687Z,100.00
2023-07-17T05:10:59.095Z,100.00
2023-07-17T05:16:02.221Z,100.00
2023-07-17T05:21:05.347Z,100.00
2023-07-17T05:26:09.750Z,100.00
2023-07-17T05:31:12.888Z,98.83
2023-07-17T05:36:16.018Z,95.68
2023-07-17T05:41:20.691Z,95.11
2023-07-17T05:46:23.952Z,93.38
2023-07-17T05:51:27.392Z,93.35
2023-07-17T05:56:32.196Z,90.63
2023-07-17T06:01:35.920Z,87.08
2023-07-17T06:06:39.020Z,82.20
2023-07-17T06:11:43.458Z,82.88
2023-07-17T06:16:46.580Z,82.65
2023-07-17T06:21:49.772Z,78.65
2023-07-17T06:26:56.148Z,78.60
2023-07-17T06:32:00.348Z,77.07
2023-07-17T06:37:04.751Z,72.04
2023-07-17T06:42:10.043Z,69.49
2023-07-17T06:47:25.235Z,65.60
2023-07-17T06:52:39.171Z,58.63
2023-07-17T06:57:44.098Z,52.90
2023-07-17T07:02:47.294Z,48.59
2023-07-17T07:07:50.409Z,47.28
2023-07-17T07:12:55.211Z,47.59
2023-07-17T07:17:58.395Z,47.01
2023-07-17T07:23:01.582Z,45.00
2023-07-17T07:28:06.493Z,45.82
2023-07-17T07:33:09.771Z,45.11
2023-07-17T07:38:12.953Z,49.50
2023-07-17T07:43:17.660Z,46.28
2023-07-17T07:48:20.748Z,44.70
2023-07-17T07:53:23.874Z,42.43
2023-07-17T07:58:28.457Z,42.52
2023-07-17T08:03:32.448Z,38.92
2023-07-17T08:08:35.911Z,39.21
2023-07-17T08:13:40.810Z,37.88
2023-07-17T08:18:44.099Z,40.53
2023-07-17T08:23:47.751Z,39.71
2023-07-17T08:28:52.237Z,41.87
2023-07-17T08:33:55.881Z,43.36
2023-07-17T08:38:59.232Z,43.86
2023-07-17T08:44:04.521Z,44.22
2023-07-17T08:49:08.168Z,44.61
2023-07-17T08:54:27.948Z,41.48
2023-07-17T08:59:35.647Z,42.94
2023-07-17T09:04:39.087Z,46.07
2023-07-17T09:09:42.201Z,42.97
2023-07-17T09:14:49.384Z,42.54
2023-07-17T09:19:52.839Z,42.23
2023-07-17T09:24:56.946Z,42.96
2023-07-17T09:30:10.213Z,44.46
2023-07-17T09:35:13.620Z,42.35
2023-07-17T09:40:19.698Z,39.70
2023-07-17T09:45:25.594Z,40.91
2023-07-17T09:50:28.897Z,39.79
2023-07-17T09:55:34.408Z,39.63
2023-07-17T10:00:42.465Z,38.70
2023-07-17T10:05:45.854Z,39.49
2023-07-17T10:10:48.971Z,39.14
2023-07-17T10:15:53.759Z,38.43
2023-07-17T10:20:57.479Z,40.48
2023-07-17T10:26:09.019Z,40.69
2023-07-17T10:31:20.034Z,40.61
2023-07-17T10:36:39.216Z,39.72
2023-07-17T10:41:43.923Z,40.50
2023-07-17T10:46:49.528Z,41.85
2023-07-17T10:51:53.014Z,40.11
2023-07-17T10:56:57.458Z,38.44
2023-07-17T11:02:05.417Z,33.28
2023-07-17T11:07:09.774Z,37.23
2023-07-17T11:12:13.035Z,32.80
2023-07-17T11:17:17.519Z,32.69
2023-07-17T11:22:20.634Z,31.16
2023-07-17T11:27:23.795Z,30.45
2023-07-17T11:32:30.393Z,32.66
2023-07-17T11:37:35.370Z,30.77
2023-07-17T11:42:54.808Z,30.18
2023-07-17T11:48:00.069Z,29.29
2023-07-17T11:53:06.564Z,29.68
2023-07-17T11:58:16.959Z,29.21
2023-07-17T12:03:21.873Z,28.27
2023-07-17T12:08:25.107Z,30.83
2023-07-17T12:13:28.195Z,30.88
2023-07-17T12:18:32.637Z,31.53
2023-07-17T12:23:35.768Z,30.99
2023-07-17T12:28:38.916Z,30.59
2023-07-17T12:33:45.258Z,33.04
2023-07-17T12:38:48.542Z,30.63
2023-07-17T12:43:51.819Z,28.27
2023-07-17T12:48:56.228Z,28.37
2023-07-17T12:53:59.347Z,28.64
2023-07-17T12:59:02.543Z,30.35
2023-07-17T13:04:07.108Z,30.08
2023-07-17T13:09:10.435Z,29.14
2023-07-17T13:14:13.535Z,29.09
2023-07-17T13:19:19.388Z,29.56
2023-07-17T13:24:24.168Z,32.31
2023-07-17T13:29:27.304Z,29.44
2023-07-17T13:34:31.769Z,31.26
2023-07-17T13:39:34.922Z,30.61
2023-07-17T13:44:38.006Z,33.58
2023-07-17T13:49:43.104Z,33.11
2023-07-17T13:54:46.492Z,35.29
2023-07-17T13:59:53.134Z,35.63
2023-07-17T14:04:58.060Z,30.29
2023-07-17T14:10:01.183Z,29.71
2023-07-17T14:15:04.761Z,30.63
2023-07-17T14:20:10.544Z,30.51
2023-07-17T14:25:13.673Z,30.98
2023-07-17T14:30:17.403Z,30.65
2023-07-17T14:35:22.174Z,31.61
2023-07-17T14:40:25.315Z,32.43
2023-07-17T14:45:28.418Z,29.35
2023-07-17T14:50:32.979Z,30.74
2023-07-17T14:55:37.200Z,30.60
2023-07-17T15:00:40.488Z,32.11
2023-07-17T15:05:45.023Z,30.73
2023-07-17T15:10:48.167Z,31.38
2023-07-17T15:15:51.316Z,31.73
2023-07-17T15:20:55.873Z,31.48
2023-07-17T15:25:59.184Z,32.42
2023-07-17T15:31:02.539Z,30.94
2023-07-17T15:36:07.556Z,32.11
2023-07-17T15:41:10.680Z,31.40
2023-07-17T15:46:13.790Z,31.53
2023-07-17T15:51:18.523Z,31.93
2023-07-17T15:56:21.847Z,34.12
2023-07-17T16:01:25.350Z,32.13
2023-07-17T16:06:31.079Z,33.25
2023-07-17T16:11:34.529Z,31.95
2023-07-17T16:16:38.203Z,31.19
2023-07-17T16:21:42.714Z,30.28
2023-07-17T16:26:45.785Z,30.06
2023-07-17T16:31:48.874Z,30.79
2023-07-17T16:36:53.330Z,29.71
2023-07-17T16:41:56.567Z,31.53
2023-07-17T16:46:59.799Z,31.27
2023-07-17T16:52:04.696Z,33.60
2023-07-17T16:57:08.313Z,32.33
2023-07-17T17:02:11.612Z,33.15
2023-07-17T17:07:16.200Z,31.15
2023-07-17T17:12:19.365Z,31.33
2023-07-17T17:17:22.560Z,33.51
2023-07-17T17:22:27.305Z,35.99
2023-07-17T17:27:30.860Z,36.55
2023-07-17T17:32:34.121Z,35.75
2023-07-17T17:37:38.621Z,37.91
2023-07-17T17:42:42.104Z,37.42
2023-07-17T17:47:45.266Z,35.81
2023-07-17T17:52:51.528Z,35.49
2023-07-17T17:57:54.606Z,36.40
2023-07-17T18:02:57.861Z,35.76
2023-07-17T18:08:02.414Z,36.50
2023-07-17T18:13:05.515Z,36.01
2023-07-17T18:18:08.878Z,35.67
2023-07-17T18:23:13.430Z,35.59
2023-07-17T18:28:16.582Z,37.19
2023-07-17T18:33:19.641Z,36.19
2023-07-17T18:38:24.423Z,38.65
2023-07-17T18:43:28.039Z,37.35
2023-07-17T18:48:31.144Z,37.30
2023-07-17T18:53:35.593Z,38.73
2023-07-17T18:58:38.687Z,40.77
2023-07-17T19:03:41.840Z,41.18
2023-07-17T19:08:46.757Z,42.26
2023-07-17T19:13:49.852Z,44.89
2023-07-17T19:18:53.105Z,46.55
2023-07-17T19:23:57.998Z,45.99
2023-07-17T19:29:01.339Z,47.22
2023-07-17T19:34:04.443Z,49.48
2023-07-17T19:39:09.172Z,51.47
2023-07-17T19:44:13.008Z,53.09
2023-07-17T19:49:16.092Z,52.95
2023-07-17T19:54:20.718Z,54.42
2023-07-17T19:59:23.785Z,54.09
2023-07-17T20:04:27.141Z,54.90
2023-07-17T20:09:33.498Z,56.39
2023-07-17T20:14:36.642Z,57.40
2023-07-17T20:19:39.719Z,58.02
2023-07-17T20:24:44.166Z,59.93
2023-07-17T20:29:47.556Z,60.77
2023-07-17T20:34:50.734Z,61.13
2023-07-17T20:39:55.519Z,61.32
2023-07-17T20:44:58.971Z,61.43
2023-07-17T20:50:02.705Z,61.92
2023-07-17T20:55:08.283Z,62.28
2023-07-17T21:00:13.676Z,63.37
2023-07-17T21:05:24.957Z,65.74
2023-07-17T21:10:29.643Z,66.16
2023-07-17T21:15:33.424Z,67.83
2023-07-17T21:20:36.717Z,68.70
2023-07-17T21:25:41.652Z,70.14
2023-07-17T21:30:45.747Z,71.31
2023-07-17T21:35:48.894Z,72.90
2023-07-17T21:40:53.668Z,73.61
2023-07-17T21:45:56.803Z,76.17
2023-07-17T21:51:00.645Z,78.55
2023-07-17T21:56:05.574Z,78.70
2023-07-17T22:01:08.738Z,80.05
2023-07-17T22:06:12.209Z,80.35
2023-07-17T22:11:17.246Z,81.24
2023-07-17T22:16:22.099Z,82.88
2023-07-17T22:21:26.064Z,85.26
2023-07-17T22:26:30.947Z,85.45
2023-07-17T22:31:34.104Z,86.21
2023-07-17T22:36:37.248Z,89.94
2023-07-17T22:41:41.862Z,93.53
2023-07-17T22:46:44.985Z,90.05
2023-07-17T22:51:48.177Z,88.96
2023-07-17T22:56:52.824Z,89.94
2023-07-17T23:01:56.292Z,90.25
2023-07-17T23:06:59.451Z,91.12
2023-07-17T23:12:04.085Z,92.77
2023-07-17T23:17:07.937Z,94.41
2023-07-17T23:22:11.068Z,95.83
2023-07-17T23:27:15.510Z,96.69
2023-07-17T23:32:18.713Z,96.31
2023-07-17T23:37:22.523Z,95.13
2023-07-17T23:42:28.729Z,92.61
2023-07-17T23:47:31.867Z,92.84
2023-07-17T23:52:35.356Z,93.30
2023-07-17T23:57:40.148Z,92.89
